createdAt,value
2022-09-06T00:02:20.369Z,9.20
2022-09-06T00:05:02.527Z,9.00
2022-09-06T00:07:44.483Z,10.90
2022-09-06T00:10:27.142Z,9.80
2022-09-06T00:13:11.186Z,6.00
2022-09-06T00:15:53.260Z,7.60
2022-09-06T00:18:35.854Z,7.00
2022-09-06T00:21:20.859Z,11.60
2022-09-06T00:24:04.061Z,8.60
2022-09-06T00:26:45.945Z,12.40
2022-09-06T00:29:27.841Z,8.40
2022-09-06T00:32:09.736Z,9.70
2022-09-06T00:34:51.751Z,12.30
2022-09-06T00:37:33.731Z,8.50
2022-09-06T00:40:16.141Z,8.70
2022-09-06T00:42:58.551Z,9.20
2022-09-06T00:45:41.160Z,8.80
2022-09-06T00:48:24.138Z,10.10
2022-09-06T00:51:11.508Z,7.10
2022-09-06T00:53:53.754Z,10.30
2022-09-06T00:56:41.133Z,7.90
2022-09-06T00:59:25.908Z,8.10
2022-09-06T01:02:09.630Z,8.90
2022-09-06T01:04:52.996Z,8.30
2022-09-06T01:07:56.569Z,9.10
2022-09-06T01:11:09.287Z,6.70
2022-09-06T01:14:06.133Z,8.20
2022-09-06T01:17:10.660Z,8.60
2022-09-06T01:20:14.781Z,8.10
2022-09-06T01:23:14.798Z,5.60
2022-09-06T01:26:05.704Z,10.10
2022-09-06T01:28:49.434Z,8.60
2022-09-06T01:31:40.295Z,8.30
2022-09-06T01:34:35.967Z,10.00
2022-09-06T01:37:20.565Z,8.10
2022-09-06T01:40:02.783Z,7.70
2022-09-06T01:42:47.047Z,9.20
2022-09-06T01:45:43.774Z,8.90
2022-09-06T01:48:57.158Z,8.60
2022-09-06T01:51:48.167Z,9.30
2022-09-06T01:54:48.802Z,9.10
2022-09-06T02:00:28.247Z,8.30
2022-09-06T02:03:25.619Z,9.50
2022-09-06T02:06:13.305Z,10.70
2022-09-06T02:09:09.213Z,7.70
2022-09-06T02:11:55.709Z,7.60
2022-09-06T02:14:44.160Z,8.20
2022-09-06T02:17:43.329Z,8.30
2022-09-06T02:20:31.196Z,9.10
2022-09-06T02:23:14.902Z,11.70
2022-09-06T02:26:03.276Z,9.50
2022-09-06T02:28:45.401Z,11.00
2022-09-06T02:31:35.336Z,9.40
2022-09-06T02:34:19.054Z,10.10
2022-09-06T02:37:00.969Z,7.40
2022-09-06T02:39:43.501Z,8.30
2022-09-06T02:42:25.887Z,10.00
2022-09-06T02:45:09.115Z,11.30
2022-09-06T02:47:51.112Z,7.80
2022-09-06T02:50:33.196Z,8.90
2022-09-06T02:53:15.826Z,10.30
2022-09-06T02:55:58.438Z,9.90
2022-09-06T02:58:40.538Z,10.10
2022-09-06T03:01:22.616Z,10.70
2022-09-06T03:04:04.841Z,10.00
2022-09-06T03:06:46.840Z,9.00
2022-09-06T03:09:28.735Z,11.00
2022-09-06T03:12:10.940Z,8.20
2022-09-06T03:14:55.027Z,9.70
2022-09-06T03:17:37.518Z,10.80
2022-09-06T03:20:19.444Z,9.00
2022-09-06T03:23:01.388Z,10.60
2022-09-06T03:25:44.819Z,11.30
2022-09-06T03:28:27.231Z,9.60
2022-09-06T03:31:09.474Z,8.70
2022-09-06T03:33:51.532Z,10.70
2022-09-06T03:36:33.530Z,8.30
2022-09-06T03:39:15.527Z,9.70
2022-09-06T03:41:57.530Z,10.00
2022-09-06T03:44:39.524Z,9.00
2022-09-06T03:47:21.571Z,8.90
2022-09-06T03:50:04.575Z,8.40
2022-09-06T03:52:46.645Z,9.80
2022-09-06T03:55:28.641Z,9.00
2022-09-06T03:58:10.640Z,8.30
2022-09-06T04:01:25.681Z,8.00
2022-09-06T04:04:07.713Z,18.40
2022-09-06T04:06:49.666Z,11.60
2022-09-06T04:09:32.016Z,9.90
2022-09-06T04:12:14.013Z,9.60
2022-09-06T04:14:55.908Z,9.90
2022-09-06T04:17:37.907Z,10.20
2022-09-06T04:20:19.906Z,11.10
2022-09-06T04:23:01.801Z,11.10
2022-09-06T04:25:51.786Z,12.50
2022-09-06T04:28:33.791Z,8.80
2022-09-06T04:31:15.783Z,11.40
2022-09-06T04:33:57.780Z,19.30
2022-09-06T04:36:40.290Z,9.70
2022-09-06T04:39:22.186Z,10.80
2022-09-06T04:42:04.287Z,12.30
2022-09-06T04:44:46.291Z,10.30
2022-09-06T04:47:28.389Z,13.60
2022-09-06T04:50:10.486Z,16.60
2022-09-06T04:52:53.202Z,16.40
2022-09-06T04:55:35.200Z,12.50
2022-09-06T04:58:17.198Z,15.30
2022-09-06T05:00:59.234Z,11.90
2022-09-06T05:03:41.609Z,16.40
2022-09-06T05:06:25.035Z,14.30
2022-09-06T05:09:07.544Z,15.80
2022-09-06T05:11:49.421Z,18.80
2022-09-06T05:14:31.383Z,13.90
2022-09-06T05:17:15.024Z,12.40
2022-09-06T05:19:56.869Z,12.30
2022-09-06T05:22:40.121Z,15.80
2022-09-06T05:25:22.306Z,13.20
2022-09-06T05:28:04.297Z,10.40
2022-09-06T05:30:46.811Z,9.80
2022-09-06T05:33:29.009Z,11.50
2022-09-06T05:36:11.774Z,8.80
2022-09-06T05:38:55.668Z,9.30
2022-09-06T05:41:37.767Z,8.70
2022-09-06T05:44:20.122Z,8.20
2022-09-06T05:47:02.481Z,8.90
2022-09-06T05:49:44.377Z,10.20
2022-09-06T05:52:26.226Z,8.90
2022-09-06T05:55:10.777Z,11.90
2022-09-06T05:57:52.727Z,9.60
2022-09-06T06:00:34.826Z,8.90
2022-09-06T06:03:16.825Z,8.80
2022-09-06T06:05:58.825Z,10.60
2022-09-06T06:08:40.827Z,7.70
2022-09-06T06:11:24.049Z,15.40
2022-09-06T06:14:06.026Z,9.00
2022-09-06T06:16:48.110Z,8.20
2022-09-06T06:19:30.144Z,8.30
2022-09-06T06:22:12.143Z,10.40
2022-09-06T06:24:54.085Z,8.40
2022-09-06T06:27:37.368Z,8.60
2022-09-06T06:30:19.267Z,10.60
2022-09-06T06:33:02.492Z,9.10
2022-09-06T06:35:57.801Z,9.00
2022-09-06T06:38:41.881Z,9.50
2022-09-06T06:41:26.259Z,10.30
2022-09-06T06:44:08.403Z,9.30
2022-09-06T06:46:50.506Z,7.30
2022-09-06T06:49:32.911Z,9.80
2022-09-06T06:52:15.113Z,10.60
2022-09-06T06:54:57.113Z,10.10
2022-09-06T06:57:39.008Z,9.50
2022-09-06T07:00:23.104Z,7.60
2022-09-06T07:03:08.226Z,9.40
2022-09-06T07:08:52.292Z,7.70
2022-09-06T07:11:34.291Z,13.20
2022-09-06T07:14:19.981Z,9.50
2022-09-06T07:17:03.310Z,10.70
2022-09-06T07:26:02.539Z,9.50
2022-09-06T07:28:44.956Z,8.60
2022-09-06T07:34:31.377Z,7.60
2022-09-06T07:37:13.324Z,7.80
2022-09-06T07:39:55.334Z,10.50
2022-09-06T07:42:37.374Z,8.30
2022-09-06T07:45:19.677Z,7.40
2022-09-06T07:48:01.676Z,11.90
2022-09-06T07:53:31.404Z,7.00
2022-09-06T07:56:13.762Z,8.10
2022-09-06T07:58:56.474Z,7.00
2022-09-06T08:01:40.449Z,9.30
2022-09-06T08:04:22.895Z,10.30
2022-09-06T08:10:08.909Z,6.10
2022-09-06T08:12:54.942Z,6.40
2022-09-06T08:15:36.885Z,11.60
2022-09-06T08:18:18.776Z,10.00
2022-09-06T08:21:12.050Z,6.50
2022-09-06T08:24:00.403Z,6.50
2022-09-06T08:26:45.151Z,9.00
2022-09-06T08:29:27.999Z,8.90
2022-09-06T08:32:11.295Z,8.20
2022-09-06T08:34:53.293Z,7.20
2022-09-06T08:37:35.292Z,6.80
2022-09-06T08:40:22.227Z,9.40
2022-09-06T08:43:04.203Z,12.00
2022-09-06T08:45:53.746Z,17.40
2022-09-06T08:48:39.956Z,8.60
2022-09-06T08:51:41.840Z,10.30
2022-09-06T08:54:33.977Z,7.60
2022-09-06T08:57:40.755Z,11.60
2022-09-06T09:00:23.413Z,6.40
2022-09-06T09:03:17.114Z,9.30
2022-09-06T09:06:00.421Z,6.00
2022-09-06T09:08:52.708Z,3.90
2022-09-06T09:11:36.470Z,8.50
2022-09-06T09:14:29.314Z,5.10
2022-09-06T09:17:20.616Z,4.90
2022-09-06T09:20:03.435Z,7.60
2022-09-06T09:22:46.766Z,5.90
2022-09-06T09:25:33.028Z,4.40
2022-09-06T09:28:19.097Z,3.30
2022-09-06T09:31:01.716Z,5.90
2022-09-06T09:33:43.667Z,4.90
2022-09-06T09:36:25.663Z,5.80
2022-09-06T09:39:12.069Z,4.20
2022-09-06T09:41:54.087Z,7.30
2022-09-06T09:44:46.759Z,2.90
2022-09-06T09:47:32.829Z,4.70
2022-09-06T09:50:30.811Z,4.40
2022-09-06T09:53:16.895Z,6.10
2022-09-06T09:55:59.507Z,4.40
2022-09-06T09:58:41.505Z,4.80
2022-09-06T10:01:28.138Z,3.40
2022-09-06T10:07:23.994Z,4.90
2022-09-06T10:10:13.058Z,3.20
2022-09-06T10:13:20.913Z,6.80
2022-09-06T10:16:04.104Z,3.60
2022-09-06T10:18:46.100Z,6.40
2022-09-06T10:21:29.638Z,1.80
2022-09-06T10:24:27.431Z,2.90
2022-09-06T10:27:10.412Z,4.50
2022-09-06T10:30:02.048Z,6.90
2022-09-06T10:33:16.392Z,3.80
2022-09-06T10:36:00.647Z,5.80
2022-09-06T10:39:03.009Z,3.30
2022-09-06T10:42:10.153Z,4.30
2022-09-06T10:45:05.517Z,5.00
2022-09-06T10:48:14.867Z,3.50
2022-09-06T10:51:27.820Z,3.90
2022-09-06T10:54:12.359Z,4.60
2022-09-06T11:01:02.241Z,8.70
2022-09-06T11:04:00.317Z,4.70
2022-09-06T11:07:01.951Z,3.20
2022-09-06T11:09:56.661Z,3.50
2022-09-06T11:12:44.106Z,6.80
2022-09-06T11:15:30.569Z,4.10
2022-09-06T11:18:26.064Z,5.90
2022-09-06T11:21:36.381Z,4.30
2022-09-06T11:24:33.821Z,4.90
2022-09-06T11:27:28.854Z,2.40
2022-09-06T11:30:18.966Z,3.40
2022-09-06T11:35:51.497Z,5.10
2022-09-06T11:38:33.801Z,5.60
2022-09-06T11:41:18.313Z,5.10
2022-09-06T11:44:05.474Z,4.60
2022-09-06T11:46:48.713Z,4.30
2022-09-06T11:49:37.592Z,4.30
2022-09-06T11:52:55.141Z,3.70
2022-09-06T11:56:02.604Z,4.50
2022-09-06T11:59:04.298Z,4.30
2022-09-06T12:02:01.372Z,4.90
2022-09-06T12:05:09.757Z,5.10
2022-09-06T12:08:11.061Z,5.70
2022-09-06T12:11:00.884Z,4.00
2022-09-06T12:13:45.544Z,4.00
2022-09-06T12:16:58.881Z,3.00
2022-09-06T12:20:06.265Z,5.70
2022-09-06T12:22:49.529Z,3.60
2022-09-06T12:25:34.510Z,8.10
2022-09-06T12:28:27.861Z,3.60
2022-09-06T12:31:38.263Z,4.40
2022-09-06T12:34:24.595Z,8.70
2022-09-06T12:37:11.314Z,7.20
2022-09-06T12:40:00.653Z,4.40
2022-09-06T12:42:47.285Z,3.50
2022-09-06T12:45:29.688Z,5.10
2022-09-06T12:48:16.707Z,4.10
2022-09-06T12:51:13.719Z,6.40
2022-09-06T12:53:59.439Z,4.40
2022-09-06T12:56:41.438Z,6.90
2022-09-06T12:59:27.312Z,5.20
2022-09-06T13:02:16.716Z,4.80
2022-09-06T13:05:09.398Z,3.70
2022-09-06T13:07:55.644Z,5.60
2022-09-06T13:10:42.967Z,5.30
2022-09-06T13:13:26.505Z,7.50
2022-09-06T13:16:08.403Z,4.40
2022-09-06T13:18:51.151Z,5.80
2022-09-06T13:21:33.460Z,6.10
2022-09-06T13:24:46.340Z,4.50
2022-09-06T13:27:31.717Z,7.30
2022-09-06T13:31:03.046Z,6.50
2022-09-06T13:33:46.649Z,5.60
2022-09-06T13:36:33.212Z,4.80
2022-09-06T13:39:33.697Z,5.10
2022-09-06T13:42:37.044Z,5.10
2022-09-06T13:45:25.426Z,7.40
2022-09-06T13:48:26.185Z,5.10
2022-09-06T13:51:10.004Z,7.70
2022-09-06T13:54:04.052Z,10.80
2022-09-06T13:56:46.458Z,5.70
2022-09-06T13:59:29.174Z,7.90
2022-09-06T14:02:16.008Z,4.40
2022-09-06T14:04:58.494Z,3.00
2022-09-06T14:07:40.389Z,5.00
2022-09-06T14:10:24.046Z,5.20
2022-09-06T14:13:06.127Z,6.30
2022-09-06T14:15:50.562Z,5.40
2022-09-06T14:18:32.527Z,4.20
2022-09-06T14:21:14.476Z,3.40
2022-09-06T14:23:58.890Z,3.50
2022-09-06T14:26:44.105Z,6.60
2022-09-06T14:29:25.999Z,10.40
2022-09-06T14:32:07.998Z,7.20
2022-09-06T14:34:49.895Z,6.70
2022-09-06T14:37:33.369Z,6.60
2022-09-06T14:40:15.904Z,4.90
2022-09-06T14:42:58.550Z,6.20
2022-09-06T14:45:41.987Z,5.60
2022-09-06T14:48:30.447Z,4.60
2022-09-06T14:51:24.517Z,4.60
2022-09-06T14:54:10.500Z,8.60
2022-09-06T14:56:52.409Z,4.60
2022-09-06T14:59:35.189Z,8.40
2022-09-06T15:02:18.673Z,6.70
2022-09-06T15:05:01.571Z,4.30
2022-09-06T15:07:43.568Z,5.50
2022-09-06T15:10:26.819Z,14.00
2022-09-06T15:13:08.640Z,8.80
2022-09-06T15:15:50.630Z,5.60
2022-09-06T15:18:33.318Z,4.40
2022-09-06T15:21:17.378Z,5.20
2022-09-06T15:24:00.699Z,3.80
2022-09-06T15:26:43.317Z,4.10
2022-09-06T15:29:27.260Z,7.70
2022-09-06T15:32:09.128Z,4.70
2022-09-06T15:34:51.023Z,4.40
2022-09-06T15:37:32.919Z,6.50
2022-09-06T15:40:15.006Z,6.70
2022-09-06T15:42:57.019Z,5.50
2022-09-06T15:45:50.272Z,4.80
2022-09-06T15:48:41.853Z,6.60
2022-09-06T15:51:23.751Z,4.50
2022-09-06T15:54:06.931Z,7.30
2022-09-06T15:56:49.433Z,7.90
2022-09-06T15:59:31.894Z,4.40
2022-09-06T16:02:14.431Z,8.50
2022-09-06T16:04:57.169Z,8.50
2022-09-06T16:07:43.264Z,8.00
2022-09-06T16:10:25.217Z,6.20
2022-09-06T16:13:07.179Z,5.10
2022-09-06T16:16:00.341Z,7.70
2022-09-06T16:18:44.763Z,10.50
2022-09-06T16:21:32.361Z,9.10
2022-09-06T16:24:15.118Z,6.90
2022-09-06T16:26:57.670Z,7.90
2022-09-06T16:29:39.626Z,4.60
2022-09-06T16:32:22.066Z,6.60
2022-09-06T16:35:06.699Z,8.00
2022-09-06T16:37:49.408Z,7.20
2022-09-06T16:40:32.258Z,6.60
2022-09-06T16:43:14.634Z,10.80
2022-09-06T16:46:01.741Z,6.90
2022-09-06T16:48:44.159Z,6.90
2022-09-06T16:51:28.110Z,9.00
2022-09-06T16:54:10.510Z,10.70
2022-09-06T16:56:53.532Z,9.90
2022-09-06T16:59:35.735Z,9.40
2022-09-06T17:02:18.457Z,9.70
2022-09-06T17:05:01.308Z,9.50
2022-09-06T17:07:43.471Z,8.90
2022-09-06T17:10:25.822Z,9.00
2022-09-06T17:13:08.188Z,9.60
2022-09-06T17:16:13.145Z,10.70
2022-09-06T17:18:55.220Z,13.20
2022-09-06T17:21:39.299Z,9.80
2022-09-06T17:24:22.161Z,11.80
2022-09-06T17:27:05.787Z,7.90
2022-09-06T17:29:48.741Z,7.90
2022-09-06T17:32:33.402Z,7.70
2022-09-06T17:35:15.913Z,9.80
2022-09-06T17:37:58.325Z,9.60
2022-09-06T17:40:40.587Z,9.30
2022-09-06T17:43:22.930Z,13.30
2022-09-06T17:46:05.675Z,11.40
2022-09-06T17:48:50.208Z,26.00
2022-09-06T17:51:33.414Z,14.40
2022-09-06T17:54:17.760Z,11.90
2022-09-06T17:57:03.704Z,13.70
2022-09-06T17:59:47.104Z,12.50
2022-09-06T18:02:30.435Z,8.00
2022-09-06T18:05:13.084Z,9.00
2022-09-06T18:07:56.888Z,8.90
2022-09-06T18:10:39.859Z,7.10
2022-09-06T18:13:23.137Z,8.40
2022-09-06T18:16:06.852Z,14.30
2022-09-06T18:18:55.936Z,11.00
2022-09-06T18:21:42.208Z,7.10
2022-09-06T18:24:27.798Z,9.20
2022-09-06T18:27:10.588Z,5.60
2022-09-06T18:29:53.058Z,9.80
2022-09-06T18:32:35.316Z,11.90
2022-09-06T18:35:17.655Z,9.50
2022-09-06T18:38:00.620Z,7.30
2022-09-06T18:40:57.523Z,9.10
2022-09-06T18:43:40.853Z,6.10
2022-09-06T18:46:23.159Z,11.10
2022-09-06T18:49:06.488Z,10.30
2022-09-06T18:51:48.793Z,8.50
2022-09-06T18:54:31.713Z,7.00
2022-09-06T18:57:15.042Z,10.10
2022-09-06T18:59:57.246Z,8.40
2022-09-06T19:02:39.772Z,7.50
2022-09-06T19:05:21.959Z,13.10
2022-09-06T19:08:05.389Z,13.70
2022-09-06T19:10:47.285Z,8.00
2022-09-06T19:13:30.360Z,8.00
2022-09-06T19:16:13.877Z,8.50
2022-09-06T19:18:57.099Z,7.30
2022-09-06T19:21:41.991Z,7.70
2022-09-06T19:24:25.775Z,8.80
2022-09-06T19:27:08.389Z,5.90
2022-09-06T19:29:50.794Z,8.00
2022-09-06T19:32:34.341Z,6.50
2022-09-06T19:35:16.557Z,8.90
2022-09-06T19:37:58.736Z,8.50
2022-09-06T19:40:41.552Z,5.70
2022-09-06T19:43:23.788Z,7.40
2022-09-06T19:46:08.289Z,4.90
2022-09-06T19:48:52.563Z,7.30
2022-09-06T19:51:36.358Z,6.40
2022-09-06T19:54:19.282Z,6.30
2022-09-06T19:57:02.449Z,6.20
2022-09-06T19:59:45.471Z,8.80
2022-09-06T20:02:27.406Z,8.30
2022-09-06T20:05:10.004Z,7.00
2022-09-06T20:07:52.081Z,7.40
2022-09-06T20:10:35.058Z,8.50
2022-09-06T20:13:16.898Z,6.90
2022-09-06T20:16:23.473Z,7.70
2022-09-06T20:19:14.707Z,9.30
2022-09-06T20:21:56.581Z,7.50
2022-09-06T20:24:38.579Z,5.80
2022-09-06T20:27:21.908Z,7.10
2022-09-06T20:30:04.325Z,8.50
2022-09-06T20:32:46.416Z,7.80
2022-09-06T20:35:28.893Z,6.70
2022-09-06T20:38:10.641Z,8.30
2022-09-06T20:41:07.094Z,9.90
2022-09-06T20:43:59.876Z,7.00
2022-09-06T20:46:41.727Z,8.30
2022-09-06T20:49:23.697Z,7.80
2022-09-06T20:52:05.599Z,7.50
2022-09-06T20:54:47.489Z,7.00
2022-09-06T20:57:29.331Z,8.10
2022-09-06T21:00:14.412Z,7.40
2022-09-06T21:02:56.554Z,5.10
2022-09-06T21:05:43.001Z,8.70
2022-09-06T21:08:26.368Z,8.10
2022-09-06T21:11:08.590Z,9.50
2022-09-06T21:13:52.328Z,9.60
2022-09-06T21:16:34.236Z,11.10
2022-09-06T21:19:16.940Z,6.80
2022-09-06T21:21:58.837Z,10.10
2022-09-06T21:24:41.243Z,10.10
2022-09-06T21:27:23.143Z,8.30
2022-09-06T21:30:05.445Z,7.10
2022-09-06T21:32:47.339Z,7.50
2022-09-06T21:35:29.236Z,8.00
2022-09-06T21:38:11.355Z,9.80
2022-09-06T21:40:53.232Z,8.80
2022-09-06T21:43:35.548Z,7.60
2022-09-06T21:46:19.556Z,7.90
2022-09-06T21:49:08.036Z,9.00
2022-09-06T21:51:50.133Z,7.90
2022-09-06T21:54:31.927Z,9.10
2022-09-06T21:57:13.823Z,8.40
2022-09-06T21:59:55.617Z,7.90
2022-09-06T22:02:37.574Z,8.60
2022-09-06T22:05:19.613Z,11.30
2022-09-06T22:08:01.815Z,10.20
2022-09-06T22:10:44.428Z,10.40
2022-09-06T22:13:26.380Z,9.80
2022-09-06T22:16:08.970Z,8.50
2022-09-06T22:18:51.854Z,11.00
2022-09-06T22:21:34.274Z,7.60
2022-09-06T22:24:16.364Z,7.40
2022-09-06T22:26:58.260Z,8.00
2022-09-06T22:29:40.158Z,9.80
2022-09-06T22:32:24.406Z,9.00
2022-09-06T22:35:06.813Z,8.50
2022-09-06T22:37:48.675Z,9.20
2022-09-06T22:40:30.562Z,7.00
2022-09-06T22:43:14.641Z,8.80
2022-09-06T22:46:07.580Z,8.00
2022-09-06T22:48:49.707Z,6.70
2022-09-06T22:51:32.217Z,7.50
2022-09-06T22:54:14.112Z,8.20
2022-09-06T22:56:56.007Z,9.60
2022-09-06T22:59:37.903Z,12.30
2022-09-06T23:02:19.799Z,7.20
2022-09-06T23:05:01.831Z,9.10
2022-09-06T23:07:43.899Z,12.70
2022-09-06T23:10:25.793Z,8.30
2022-09-06T23:13:08.674Z,9.30
2022-09-06T23:15:50.638Z,9.80
2022-09-06T23:18:32.820Z,8.40
2022-09-06T23:21:17.808Z,9.00
2022-09-06T23:23:59.777Z,9.20
2022-09-06T23:26:41.781Z,9.30
2022-09-06T23:29:23.671Z,7.70
2022-09-06T23:32:05.668Z,7.80
2022-09-06T23:34:47.667Z,9.20
2022-09-06T23:37:29.562Z,6.30
2022-09-06T23:40:11.738Z,8.10
2022-09-06T23:42:53.764Z,7.90
2022-09-06T23:45:35.761Z,8.50
2022-09-06T23:48:18.375Z,7.20
2022-09-06T23:51:00.269Z,11.90
2022-09-06T23:53:42.576Z,8.80
2022-09-06T23:56:24.680Z,8.80
2022-09-06T23:59:06.570Z,6.90
